Time;durP1;ratioP1;P1;durP2;ratioP2;P2;SDS_P1;SDS_P2;PMS_P1;PMS_P2;Temp;Humidity;BMP_temperature;BMP_pressure;BME280_temperature;BME280_humidity;BME280_pressure;Samples;Min_cycle;Max_cycle;Signal;HPM_P1;HPM_P2
2024/01/22 00:02:20;;;;;;;18.77;14.93;;;;;;;;;;5051868;28;20425;-79
2024/01/22 00:04:46;;;;;;;18.00;14.95;;;;;;;;;;5055542;28;20412;-79
2024/01/22 00:07:12;;;;;;;19.58;15.63;;;;;;;;;;5039315;28;20409;-79
2024/01/22 00:09:38;;;;;;;20.38;16.33;;;;;;;;;;5054997;28;20476;-79
2024/01/22 00:12:04;;;;;;;21.33;16.95;;;;;;;;;;5055563;28;20465;-79
2024/01/22 00:14:30;;;;;;;21.85;16.88;;;;;;;;;;5055102;28;20806;-79
2024/01/22 00:16:56;;;;;;;20.55;16.30;;;;;;;;;;5055448;28;20393;-78
2024/01/22 00:19:22;;;;;;;17.45;14.32;;;;;;;;;;5054416;28;20882;-79
2024/01/22 00:21:48;;;;;;;19.08;15.65;;;;;;;;;;5056076;28;20554;-79
2024/01/22 00:24:14;;;;;;;18.50;14.65;;;;;;;;;;5056160;28;20471;-78
2024/01/22 00:26:40;;;;;;;21.00;16.23;;;;;;;;;;5056630;28;20374;-78
2024/01/22 00:29:07;;;;;;;20.20;15.47;;;;;;;;;;5056752;28;20450;-79
2024/01/22 00:31:33;;;;;;;19.00;15.50;;;;;;;;;;5056654;28;20391;-79
2024/01/22 00:33:59;;;;;;;18.52;15.10;;;;;;;;;;5058730;28;20381;-79
2024/01/22 00:36:25;;;;;;;17.55;15.00;;;;;;;;;;5056500;28;20424;-79
2024/01/22 00:38:51;;;;;;;17.15;14.98;;;;;;;;;;5056823;28;20762;-78
2024/01/22 00:41:17;;;;;;;18.42;14.63;;;;;;;;;;5056355;28;20410;-79
2024/01/22 00:43:43;;;;;;;15.40;13.63;;;;;;;;;;5056291;28;20486;-79
2024/01/22 00:46:09;;;;;;;15.85;13.77;;;;;;;;;;5056865;28;20382;-79
2024/01/22 00:48:35;;;;;;;16.80;13.30;;;;;;;;;;5056757;28;20381;-79
2024/01/22 00:51:01;;;;;;;15.13;13.40;;;;;;;;;;5056930;28;20385;-79
2024/01/22 00:53:27;;;;;;;17.05;13.55;;;;;;;;;;5056767;28;20464;-79
2024/01/22 00:55:53;;;;;;;15.70;13.57;;;;;;;;;;5056736;28;20393;-79
2024/01/22 00:58:19;;;;;;;15.90;13.50;;;;;;;;;;5056993;28;20439;-79
2024/01/22 01:00:45;;;;;;;15.87;13.50;;;;;;;;;;5057371;28;20741;-79
2024/01/22 01:03:11;;;;;;;14.70;12.85;;;;;;;;;;5057630;28;20409;-79
2024/01/22 01:05:37;;;;;;;19.27;14.15;;;;;;;;;;5057442;28;20385;-79
2024/01/22 01:08:03;;;;;;;15.77;13.52;;;;;;;;;;5057634;28;20408;-79
2024/01/22 01:10:29;;;;;;;14.77;13.15;;;;;;;;;;5057183;28;20863;-79
2024/01/22 01:12:55;;;;;;;15.02;12.98;;;;;;;;;;5057239;28;20392;-79
2024/01/22 01:15:23;;;;;;;16.40;13.25;;;;;;;;;;5057696;28;20715;-79
2024/01/22 01:17:48;;;;;;;15.20;12.73;;;;;;;;;;5057537;28;20473;-79
2024/01/22 01:20:14;;;;;;;17.13;13.60;;;;;;;;;;5057207;28;20468;-79
2024/01/22 01:22:40;;;;;;;17.85;13.90;;;;;;;;;;5057145;28;20412;-79
2024/01/22 01:25:07;;;;;;;17.25;13.25;;;;;;;;;;5057019;28;20374;-79
2024/01/22 01:27:33;;;;;;;18.63;13.85;;;;;;;;;;5057952;28;20436;-80
2024/01/22 01:29:59;;;;;;;15.70;13.23;;;;;;;;;;5058183;28;20386;-80
2024/01/22 01:32:26;;;;;;;14.65;13.05;;;;;;;;;;5057352;28;20393;-79
2024/01/22 01:34:52;;;;;;;16.23;13.20;;;;;;;;;;5057804;28;20381;-79
2024/01/22 01:37:18;;;;;;;14.90;13.20;;;;;;;;;;5057972;28;20412;-80
2024/01/22 01:39:44;;;;;;;16.98;13.45;;;;;;;;;;5057281;28;20925;-79
2024/01/22 01:42:10;;;;;;;17.40;13.93;;;;;;;;;;5057373;28;20418;-79
2024/01/22 01:44:39;;;;;;;16.15;13.30;;;;;;;;;;5054108;28;20388;-79
2024/01/22 01:47:06;;;;;;;16.50;13.20;;;;;;;;;;5056890;28;20388;-79
2024/01/22 01:49:32;;;;;;;15.35;12.85;;;;;;;;;;5057085;28;20401;-80
2024/01/22 01:51:58;;;;;;;16.85;13.75;;;;;;;;;;5057364;28;20446;-79
2024/01/22 01:54:25;;;;;;;15.60;13.63;;;;;;;;;;5057430;28;20384;-80
2024/01/22 01:56:52;;;;;;;17.25;14.05;;;;;;;;;;5056672;28;20381;-79
2024/01/22 01:59:19;;;;;;;17.67;14.48;;;;;;;;;;5056203;28;20893;-80
2024/01/22 02:01:45;;;;;;;17.60;13.88;;;;;;;;;;5056196;28;20543;-79
2024/01/22 02:04:11;;;;;;;17.15;14.32;;;;;;;;;;5057002;28;20413;-79
2024/01/22 02:06:37;;;;;;;15.95;13.90;;;;;;;;;;5056585;28;20472;-79
2024/01/22 02:09:03;;;;;;;16.55;13.93;;;;;;;;;;5056261;28;20388;-79
2024/01/22 02:11:29;;;;;;;16.90;14.23;;;;;;;;;;5056227;28;20385;-79
2024/01/22 02:13:56;;;;;;;18.10;14.45;;;;;;;;;;5056429;28;20396;-79
2024/01/22 02:16:22;;;;;;;17.10;14.25;;;;;;;;;;5056662;28;20385;-80
2024/01/22 02:18:48;;;;;;;20.27;15.00;;;;;;;;;;5056739;28;20417;-78
2024/01/22 02:21:14;;;;;;;17.58;13.98;;;;;;;;;;5056387;28;20390;-79
2024/01/22 02:23:40;;;;;;;18.75;13.95;;;;;;;;;;5056300;28;20496;-79
2024/01/22 02:26:06;;;;;;;16.77;14.10;;;;;;;;;;5066415;28;20861;-79
2024/01/22 02:28:32;;;;;;;17.02;13.68;;;;;;;;;;5076207;28;20868;-79
2024/01/22 02:30:59;;;;;;;18.50;14.70;;;;;;;;;;5074588;28;20375;-79
2024/01/22 02:33:25;;;;;;;15.97;13.30;;;;;;;;;;5074917;28;20481;-78
2024/01/22 02:35:51;;;;;;;17.20;13.30;;;;;;;;;;5074599;28;20387;-78
2024/01/22 02:38:17;;;;;;;17.60;13.63;;;;;;;;;;5073725;28;20468;-78
2024/01/22 02:40:43;;;;;;;16.52;13.13;;;;;;;;;;5073101;28;20392;-78
2024/01/22 02:43:09;;;;;;;17.35;13.57;;;;;;;;;;5073967;28;20857;-79
2024/01/22 02:45:35;;;;;;;19.73;14.55;;;;;;;;;;5074771;28;20467;-78
2024/01/22 02:48:01;;;;;;;15.37;12.93;;;;;;;;;;5074939;28;20803;-78
2024/01/22 02:50:27;;;;;;;17.60;13.38;;;;;;;;;;5075033;28;20367;-79
2024/01/22 02:52:53;;;;;;;14.38;12.15;;;;;;;;;;5073725;28;20866;-79
2024/01/22 02:55:19;;;;;;;13.90;12.38;;;;;;;;;;5074010;28;20387;-79
2024/01/22 02:57:45;;;;;;;14.77;13.20;;;;;;;;;;5075551;28;20780;-78
2024/01/22 03:00:11;;;;;;;14.90;13.02;;;;;;;;;;5074612;28;20478;-79
2024/01/22 03:02:37;;;;;;;14.75;12.73;;;;;;;;;;5075324;28;20869;-79
2024/01/22 03:05:03;;;;;;;14.88;12.57;;;;;;;;;;5074609;28;20383;-79
2024/01/22 03:07:29;;;;;;;13.45;11.90;;;;;;;;;;5074892;28;20407;-79
2024/01/22 03:09:55;;;;;;;15.07;12.38;;;;;;;;;;5073899;28;20433;-79
2024/01/22 03:12:21;;;;;;;15.90;12.90;;;;;;;;;;5077935;28;20738;-80
2024/01/22 03:14:47;;;;;;;15.30;12.20;;;;;;;;;;5077904;28;20383;-79
2024/01/22 03:17:13;;;;;;;14.03;11.83;;;;;;;;;;5077943;28;20407;-78
2024/01/22 03:19:40;;;;;;;13.27;11.85;;;;;;;;;;5078161;28;20383;-78
2024/01/22 03:22:06;;;;;;;14.10;11.98;;;;;;;;;;5078990;28;20499;-78
2024/01/22 03:24:32;;;;;;;15.07;11.90;;;;;;;;;;5077977;28;20415;-78
2024/01/22 03:26:58;;;;;;;13.45;11.93;;;;;;;;;;5068540;28;20400;-78
2024/01/22 03:29:24;;;;;;;15.23;11.50;;;;;;;;;;5057533;28;20382;-79
2024/01/22 03:31:50;;;;;;;12.88;11.40;;;;;;;;;;5056281;28;20392;-78
2024/01/22 03:34:16;;;;;;;14.32;12.43;;;;;;;;;;5057613;28;20465;-78
2024/01/22 03:36:42;;;;;;;12.33;11.13;;;;;;;;;;5057356;28;20502;-79
2024/01/22 03:39:08;;;;;;;13.05;11.75;;;;;;;;;;5057254;28;20473;-79
2024/01/22 03:41:34;;;;;;;13.27;11.02;;;;;;;;;;5057577;28;20427;-78
2024/01/22 03:44:02;;;;;;;13.23;11.82;;;;;;;;;;5057266;28;20387;-79
2024/01/22 03:46:28;;;;;;;12.80;11.43;;;;;;;;;;5052310;28;20959;-79
2024/01/22 03:48:54;;;;;;;14.25;12.02;;;;;;;;;;5036967;28;20399;-78
2024/01/22 03:51:20;;;;;;;12.70;11.40;;;;;;;;;;5037384;28;20470;-78
2024/01/22 03:53:46;;;;;;;12.13;10.77;;;;;;;;;;5037395;28;20379;-79
2024/01/22 03:56:12;;;;;;;12.40;11.20;;;;;;;;;;5037428;28;20389;-79
2024/01/22 03:58:38;;;;;;;13.82;11.80;;;;;;;;;;5037244;28;20379;-78
2024/01/22 04:01:04;;;;;;;13.88;11.20;;;;;;;;;;5037456;28;20828;-79
2024/01/22 04:03:34;;;;;;;12.45;10.85;;;;;;;;;;5037416;28;20441;-78
2024/01/22 04:06:00;;;;;;;13.32;11.57;;;;;;;;;;5035818;28;20821;-78
2024/01/22 04:08:26;;;;;;;12.55;11.32;;;;;;;;;;5036366;28;20379;-79
2024/01/22 04:10:52;;;;;;;13.00;11.60;;;;;;;;;;5037260;28;20411;-78
2024/01/22 04:13:18;;;;;;;12.80;11.50;;;;;;;;;;5037459;28;20394;-79
2024/01/22 04:15:44;;;;;;;12.10;10.80;;;;;;;;;;5037333;28;20398;-79
2024/01/22 04:18:10;;;;;;;12.82;11.50;;;;;;;;;;5061853;28;20408;-79
2024/01/22 04:20:36;;;;;;;13.48;11.25;;;;;;;;;;5077869;28;20714;-79
2024/01/22 04:23:02;;;;;;;12.50;10.83;;;;;;;;;;5078057;28;20414;-79
2024/01/22 04:25:28;;;;;;;13.13;11.50;;;;;;;;;;5078510;28;20396;-79
2024/01/22 04:27:56;;;;;;;12.43;11.17;;;;;;;;;;5074734;28;20368;-79
2024/01/22 04:30:22;;;;;;;12.73;11.23;;;;;;;;;;5057690;28;20459;-79
2024/01/22 04:32:48;;;;;;;12.52;11.13;;;;;;;;;;5058521;28;20786;-79
2024/01/22 04:35:14;;;;;;;12.57;11.27;;;;;;;;;;5057621;28;20382;-79
2024/01/22 04:37:40;;;;;;;13.85;11.88;;;;;;;;;;5058486;28;20412;-80
2024/01/22 04:40:13;;;;;;;12.98;11.00;;;;;;;;;;5058797;28;20381;-79
2024/01/22 04:42:40;;;;;;;12.75;10.70;;;;;;;;;;5058028;28;20975;-80
2024/01/22 04:45:06;;;;;;;11.80;10.60;;;;;;;;;;5057984;28;20445;-80
2024/01/22 04:47:32;;;;;;;12.07;10.77;;;;;;;;;;5057105;28;20405;-79
2024/01/22 04:49:58;;;;;;;12.30;11.00;;;;;;;;;;5057460;28;20400;-80
2024/01/22 04:52:24;;;;;;;11.73;10.53;;;;;;;;;;5056624;28;20402;-79
2024/01/22 04:54:50;;;;;;;12.27;10.60;;;;;;;;;;5056366;28;20385;-79
2024/01/22 04:57:16;;;;;;;12.00;10.73;;;;;;;;;;5056222;28;20436;-80
2024/01/22 04:59:42;;;;;;;12.77;10.65;;;;;;;;;;5056431;28;20381;-79
2024/01/22 05:02:08;;;;;;;13.48;11.00;;;;;;;;;;5056486;28;20771;-79
2024/01/22 05:04:34;;;;;;;12.07;10.65;;;;;;;;;;5056867;28;20382;-79
2024/01/22 05:07:00;;;;;;;13.00;10.88;;;;;;;;;;5056441;28;20436;-80
2024/01/22 05:09:26;;;;;;;11.40;10.30;;;;;;;;;;5057264;28;20420;-79
2024/01/22 05:11:52;;;;;;;11.57;10.30;;;;;;;;;;5056757;28;20384;-78
2024/01/22 05:14:18;;;;;;;12.27;11.02;;;;;;;;;;5052447;28;20409;-79
2024/01/22 05:16:44;;;;;;;14.63;11.75;;;;;;;;;;5056765;28;20389;-80
2024/01/22 05:19:10;;;;;;;12.68;11.38;;;;;;;;;;5048830;28;20399;-79
2024/01/22 05:21:36;;;;;;;16.05;13.65;;;;;;;;;;5037578;28;20848;-80
2024/01/22 05:24:02;;;;;;;16.67;12.50;;;;;;;;;;5035890;28;20403;-80
2024/01/22 05:26:28;;;;;;;14.18;12.38;;;;;;;;;;5037577;28;20787;-80
2024/01/22 05:28:54;;;;;;;12.47;11.17;;;;;;;;;;5037163;28;20445;-79
2024/01/22 05:31:20;;;;;;;12.98;11.57;;;;;;;;;;5037414;28;20470;-79
2024/01/22 05:33:46;;;;;;;13.90;12.38;;;;;;;;;;5036040;28;20379;-79
2024/01/22 05:36:12;;;;;;;16.63;13.25;;;;;;;;;;5036885;28;20458;-79
2024/01/22 05:38:41;;;;;;;15.00;13.05;;;;;;;;;;5036009;28;20387;-79
2024/01/22 05:41:07;;;;;;;14.55;11.93;;;;;;;;;;5036362;28;20428;-79
2024/01/22 05:43:33;;;;;;;14.02;11.80;;;;;;;;;;5036565;28;20411;-79
2024/01/22 05:45:59;;;;;;;13.60;11.88;;;;;;;;;;5034787;28;20924;-79
2024/01/22 05:48:25;;;;;;;14.63;12.18;;;;;;;;;;5034941;28;20395;-79
2024/01/22 05:50:51;;;;;;;13.37;11.97;;;;;;;;;;5035647;28;20477;-79
2024/01/22 05:53:17;;;;;;;13.73;12.07;;;;;;;;;;5036530;28;20793;-79
2024/01/22 05:55:43;;;;;;;15.15;12.98;;;;;;;;;;5038321;28;20471;-79
2024/01/22 05:58:09;;;;;;;14.15;12.57;;;;;;;;;;5057075;28;20385;-80
2024/01/22 06:00:35;;;;;;;15.18;12.77;;;;;;;;;;5057245;28;20413;-80
2024/01/22 06:03:03;;;;;;;15.80;12.67;;;;;;;;;;5056028;28;21767;-79
2024/01/22 06:05:29;;;;;;;16.52;13.48;;;;;;;;;;5056733;28;20404;-79
2024/01/22 06:07:55;;;;;;;16.85;13.27;;;;;;;;;;5059333;28;20378;-79
2024/01/22 06:10:21;;;;;;;14.40;12.40;;;;;;;;;;5056298;28;20405;-79
2024/01/22 06:12:47;;;;;;;15.82;13.02;;;;;;;;;;5056313;28;20373;-79
2024/01/22 06:15:13;;;;;;;14.73;12.57;;;;;;;;;;5055926;28;20421;-79
2024/01/22 06:17:39;;;;;;;15.25;12.98;;;;;;;;;;5056187;28;20381;-79
2024/01/22 06:20:06;;;;;;;16.10;12.90;;;;;;;;;;5055657;28;20875;-79
2024/01/22 06:22:33;;;;;;;14.98;13.05;;;;;;;;;;5055343;28;20424;-79
2024/01/22 06:25:00;;;;;;;17.15;13.90;;;;;;;;;;5054125;28;20407;-79
2024/01/22 06:27:26;;;;;;;16.77;13.63;;;;;;;;;;5055005;28;20374;-80
2024/01/22 06:29:56;;;;;;;15.40;13.15;;;;;;;;;;5054972;28;20905;-79
2024/01/22 06:32:22;;;;;;;15.10;12.82;;;;;;;;;;5054052;28;20440;-79
2024/01/22 06:34:48;;;;;;;15.50;13.25;;;;;;;;;;5065884;28;20391;-79
2024/01/22 06:37:15;;;;;;;15.23;13.37;;;;;;;;;;5074515;28;20395;-78
2024/01/22 06:39:41;;;;;;;17.42;13.45;;;;;;;;;;5074761;28;20376;-79
2024/01/22 06:42:07;;;;;;;15.77;13.55;;;;;;;;;;5074904;28;20407;-79
2024/01/22 06:44:33;;;;;;;17.33;14.70;;;;;;;;;;5075856;28;20867;-79
2024/01/22 06:46:59;;;;;;;18.85;14.77;;;;;;;;;;5077762;28;20386;-79
2024/01/22 06:49:25;;;;;;;19.85;15.73;;;;;;;;;;5078184;28;20387;-79
2024/01/22 06:51:51;;;;;;;18.38;15.35;;;;;;;;;;5078448;28;20375;-79
2024/01/22 06:54:19;;;;;;;19.58;15.15;;;;;;;;;;5078095;28;20380;-79
2024/01/22 06:56:45;;;;;;;18.65;14.35;;;;;;;;;;5078392;28;20467;-79
2024/01/22 06:59:11;;;;;;;19.25;15.68;;;;;;;;;;5078793;28;20462;-78
2024/01/22 07:01:37;;;;;;;18.23;14.77;;;;;;;;;;5078042;28;20431;-79
2024/01/22 07:04:03;;;;;;;19.17;14.27;;;;;;;;;;5077808;28;20427;-79
2024/01/22 07:06:29;;;;;;;19.80;15.40;;;;;;;;;;5078273;28;20516;-79
2024/01/22 07:08:55;;;;;;;18.48;14.77;;;;;;;;;;5078306;28;20376;-79
2024/01/22 07:11:21;;;;;;;18.73;14.97;;;;;;;;;;5077806;28;20914;-79
2024/01/22 07:13:47;;;;;;;19.60;15.20;;;;;;;;;;5077481;28;20391;-78
2024/01/22 07:16:13;;;;;;;19.73;14.90;;;;;;;;;;5076898;28;20422;-79
2024/01/22 07:18:39;;;;;;;18.95;15.93;;;;;;;;;;5077339;28;20468;-79
2024/01/22 07:21:06;;;;;;;17.92;15.05;;;;;;;;;;5076281;28;20388;-79
2024/01/22 07:23:33;;;;;;;20.17;15.23;;;;;;;;;;5078079;28;20485;-79
2024/01/22 07:25:59;;;;;;;19.73;15.45;;;;;;;;;;5078052;28;20379;-79
2024/01/22 07:28:25;;;;;;;16.83;14.18;;;;;;;;;;5078096;28;20414;-79
2024/01/22 07:30:51;;;;;;;18.23;14.90;;;;;;;;;;5078101;28;20780;-79
2024/01/22 07:33:17;;;;;;;15.50;13.82;;;;;;;;;;5078145;28;20416;-79
2024/01/22 07:35:43;;;;;;;21.85;15.38;;;;;;;;;;5076872;28;20783;-78
2024/01/22 07:38:09;;;;;;;20.15;15.48;;;;;;;;;;5075570;28;20474;-79
2024/01/22 07:40:35;;;;;;;21.38;15.73;;;;;;;;;;5076751;28;20391;-79
2024/01/22 07:43:01;;;;;;;18.33;15.02;;;;;;;;;;5077160;28;20403;-79
2024/01/22 07:45:27;;;;;;;17.65;14.30;;;;;;;;;;5075907;28;20376;-79
2024/01/22 07:47:53;;;;;;;18.45;14.43;;;;;;;;;;5077210;28;20415;-79
2024/01/22 07:50:20;;;;;;;19.70;14.32;;;;;;;;;;5065998;28;20389;-79
2024/01/22 07:52:46;;;;;;;19.27;14.52;;;;;;;;;;5057116;28;20443;-79
2024/01/22 07:55:13;;;;;;;19.65;14.77;;;;;;;;;;5057205;28;20464;-79
2024/01/22 07:57:39;;;;;;;16.45;13.57;;;;;;;;;;5055885;28;20390;-78
2024/01/22 08:00:11;;;;;;;14.98;13.23;;;;;;;;;;5058369;28;20383;-79
2024/01/22 08:02:37;;;;;;;11.50;10.35;;;;;;;;;;5059494;28;20895;-79
2024/01/22 08:05:04;;;;;;;12.32;10.13;;;;;;;;;;5059065;28;20450;-79
2024/01/22 08:07:29;;;;;;;10.48;8.85;;;;;;;;;;5058225;28;20412;-78
2024/01/22 08:09:55;;;;;;;9.15;8.25;;;;;;;;;;5057008;28;20751;-79
2024/01/22 08:12:22;;;;;;;9.97;8.03;;;;;;;;;;5058073;28;20416;-79
2024/01/22 08:14:48;;;;;;;9.30;8.10;;;;;;;;;;5060932;28;20377;-79
2024/01/22 08:17:14;;;;;;;8.45;7.57;;;;;;;;;;5058330;28;20898;-79
2024/01/22 08:19:39;;;;;;;7.97;7.28;;;;;;;;;;5058575;28;20464;-79
2024/01/22 08:22:05;;;;;;;8.95;7.63;;;;;;;;;;5059503;28;20859;-79
2024/01/22 08:24:32;;;;;;;8.27;6.87;;;;;;;;;;5058984;28;20388;-79
2024/01/22 08:26:59;;;;;;;13.73;10.73;;;;;;;;;;5059168;28;20385;-80
2024/01/22 08:29:25;;;;;;;13.07;11.77;;;;;;;;;;5058803;28;20905;-79
2024/01/22 08:31:52;;;;;;;16.48;12.50;;;;;;;;;;5058365;28;20381;-79
2024/01/22 08:34:18;;;;;;;18.10;14.65;;;;;;;;;;5058545;28;20378;-79
2024/01/22 08:36:44;;;;;;;15.55;12.30;;;;;;;;;;5061411;28;20372;-79
2024/01/22 08:39:10;;;;;;;15.68;14.02;;;;;;;;;;5077694;28;20376;-79
2024/01/22 08:41:37;;;;;;;16.63;13.20;;;;;;;;;;5077206;28;20384;-79
2024/01/22 08:44:05;;;;;;;16.23;13.03;;;;;;;;;;5077269;28;20408;-79
2024/01/22 08:46:31;;;;;;;18.42;13.63;;;;;;;;;;5078130;28;20411;-79
2024/01/22 08:48:57;;;;;;;15.02;13.02;;;;;;;;;;5077879;28;20399;-79
2024/01/22 08:51:23;;;;;;;15.77;12.77;;;;;;;;;;5077884;28;20392;-79
2024/01/22 08:53:49;;;;;;;15.73;12.93;;;;;;;;;;5078079;28;20380;-79
2024/01/22 08:56:15;;;;;;;16.50;13.00;;;;;;;;;;5076018;28;20407;-79
2024/01/22 08:58:41;;;;;;;14.80;12.30;;;;;;;;;;5077568;28;20379;-80
2024/01/22 09:01:07;;;;;;;14.93;11.98;;;;;;;;;;5077242;28;20411;-79
2024/01/22 09:03:33;;;;;;;12.57;11.05;;;;;;;;;;5077554;28;20427;-80
2024/01/22 09:06:00;;;;;;;15.68;11.93;;;;;;;;;;5077199;28;20371;-80
2024/01/22 09:08:26;;;;;;;13.47;11.63;;;;;;;;;;5076823;28;20384;-80
2024/01/22 09:10:52;;;;;;;14.23;11.80;;;;;;;;;;5077728;28;20376;-80
2024/01/22 09:13:18;;;;;;;15.63;11.82;;;;;;;;;;5077145;28;20936;-80
2024/01/22 09:15:45;;;;;;;14.40;11.95;;;;;;;;;;5077107;28;20379;-80
2024/01/22 09:18:11;;;;;;;15.45;10.90;;;;;;;;;;5075283;28;20869;-80
2024/01/22 09:20:37;;;;;;;12.18;10.93;;;;;;;;;;5074304;28;20395;-80
2024/01/22 09:23:03;;;;;;;13.32;10.98;;;;;;;;;;5075661;28;20404;-80
2024/01/22 09:25:29;;;;;;;12.65;11.10;;;;;;;;;;5076007;28;20380;-80
2024/01/22 09:27:55;;;;;;;41.70;22.95;;;;;;;;;;5076159;28;20432;-80
2024/01/22 09:30:21;;;;;;;20.42;13.93;;;;;;;;;;5077885;28;20436;-80
2024/01/22 09:32:47;;;;;;;32.58;17.42;;;;;;;;;;5076289;28;20379;-80
2024/01/22 09:35:14;;;;;;;38.50;18.70;;;;;;;;;;5076827;28;20372;-80
2024/01/22 09:37:40;;;;;;;16.52;11.52;;;;;;;;;;5077807;28;20395;-80
2024/01/22 09:40:07;;;;;;;13.48;11.88;;;;;;;;;;5078186;28;20990;-80
2024/01/22 09:42:33;;;;;;;11.38;10.27;;;;;;;;;;5076647;28;20498;-80
2024/01/22 09:45:02;;;;;;;13.85;12.02;;;;;;;;;;5055307;28;20753;-80
2024/01/22 09:47:28;;;;;;;14.52;11.23;;;;;;;;;;5036875;28;20386;-80
2024/01/22 09:49:54;;;;;;;13.93;11.30;;;;;;;;;;5036877;28;20410;-80
2024/01/22 09:52:21;;;;;;;12.80;11.35;;;;;;;;;;5035976;28;20376;-80
2024/01/22 09:54:48;;;;;;;14.35;11.55;;;;;;;;;;5036814;28;20745;-80
2024/01/22 09:57:17;;;;;;;12.77;10.73;;;;;;;;;;5034984;28;20383;-79
2024/01/22 09:59:44;;;;;;;13.57;11.18;;;;;;;;;;5035548;28;20386;-80
2024/01/22 10:02:17;;;;;;;11.30;10.15;;;;;;;;;;5035787;28;20425;-80
2024/01/22 10:04:44;;;;;;;11.82;10.00;;;;;;;;;;5035862;28;20382;-80
2024/01/22 10:07:12;;;;;;;11.25;10.10;;;;;;;;;;5033033;28;20869;-80
2024/01/22 10:09:38;;;;;;;11.05;9.75;;;;;;;;;;5034693;28;20383;-80
2024/01/22 10:12:05;;;;;;;10.15;9.15;;;;;;;;;;5033846;28;20953;-80
2024/01/22 10:14:31;;;;;;;11.15;9.82;;;;;;;;;;5033635;28;20375;-80
2024/01/22 10:16:58;;;;;;;10.35;9.35;;;;;;;;;;5032963;28;20403;-80
2024/01/22 10:19:28;;;;;;;9.82;8.80;;;;;;;;;;5054153;28;20378;-80
2024/01/22 10:22:01;;;;;;;9.18;8.32;;;;;;;;;;5053068;28;20717;-80
2024/01/22 10:24:29;;;;;;;9.63;8.20;;;;;;;;;;5053409;28;20719;-80
2024/01/22 10:26:55;;;;;;;7.05;5.75;;;;;;;;;;5053140;28;20427;-80
2024/01/22 10:29:23;;;;;;;7.57;5.73;;;;;;;;;;5053594;28;20378;-80
2024/01/22 10:31:58;;;;;;;4.70;4.30;;;;;;;;;;5053729;28;20435;-80
2024/01/22 10:34:28;;;;;;;4.90;4.13;;;;;;;;;;5053718;28;20377;-80
2024/01/22 10:37:07;;;;;;;5.85;4.10;;;;;;;;;;5053113;28;20385;-80
2024/01/22 10:39:34;;;;;;;4.10;3.53;;;;;;;;;;5056106;28;20836;-80
2024/01/22 10:42:13;;;;;;;4.30;3.53;;;;;;;;;;5053933;28;20373;-81
2024/01/22 10:44:41;;;;;;;3.63;3.13;;;;;;;;;;5053171;28;20393;-80
2024/01/22 10:47:07;;;;;;;3.95;3.30;;;;;;;;;;5053668;28;20708;-80
2024/01/22 10:49:34;;;;;;;3.10;2.80;;;;;;;;;;5053366;28;20377;-80
2024/01/22 10:52:00;;;;;;;3.28;2.97;;;;;;;;;;5053121;28;20788;-80
2024/01/22 10:54:27;;;;;;;3.90;2.78;;;;;;;;;;5053193;28;20378;-80
2024/01/22 10:57:02;;;;;;;3.58;3.20;;;;;;;;;;5052882;28;20377;-79
2024/01/22 10:59:30;;;;;;;3.50;2.67;;;;;;;;;;5054542;28;20414;-80
2024/01/22 11:01:59;;;;;;;3.03;2.63;;;;;;;;;;5056004;28;20401;-80
2024/01/22 11:04:30;;;;;;;3.28;2.50;;;;;;;;;;5057011;28;20373;-80
2024/01/22 11:07:00;;;;;;;4.07;2.60;;;;;;;;;;5058286;28;20392;-80
2024/01/22 11:09:32;;;;;;;3.72;2.70;;;;;;;;;;5057088;28;20381;-81
2024/01/22 11:12:09;;;;;;;4.82;2.88;;;;;;;;;;5055936;28;20389;-80
2024/01/22 11:14:36;;;;;;;3.80;3.00;;;;;;;;;;5057152;28;20374;-81
2024/01/22 11:17:06;;;;;;;3.53;2.60;;;;;;;;;;5058207;28;20378;-81
2024/01/22 11:19:32;;;;;;;3.60;2.92;;;;;;;;;;5059738;28;20381;-82
2024/01/22 11:21:59;;;;;;;3.42;3.13;;;;;;;;;;5056239;28;20394;-82
2024/01/22 11:24:25;;;;;;;4.38;3.40;;;;;;;;;;5056601;28;20389;-80
2024/01/22 11:26:54;;;;;;;3.85;2.55;;;;;;;;;;5057968;28;20867;-81
2024/01/22 11:29:24;;;;;;;4.40;2.45;;;;;;;;;;5059915;28;20390;-81
2024/01/22 11:31:50;;;;;;;2.80;2.45;;;;;;;;;;5060462;28;20409;-81
2024/01/22 11:34:35;;;;;;;3.83;2.60;;;;;;;;;;5063349;28;20479;-81
2024/01/22 11:37:01;;;;;;;2.83;2.07;;;;;;;;;;5061372;28;20478;-81
2024/01/22 11:39:38;;;;;;;2.25;2.05;;;;;;;;;;5061381;28;20381;-80
2024/01/22 11:42:07;;;;;;;3.13;2.50;;;;;;;;;;5062128;28;20392;-81
2024/01/22 11:44:43;;;;;;;7.05;4.32;;;;;;;;;;5049093;28;20471;-81
2024/01/22 11:47:10;;;;;;;10.07;5.40;;;;;;;;;;5043066;28;20387;-81
2024/01/22 11:49:36;;;;;;;8.40;4.38;;;;;;;;;;5043502;28;20390;-81
2024/01/22 11:52:22;;;;;;;2.63;2.35;;;;;;;;;;5042779;28;20379;-81
2024/01/22 11:54:56;;;;;;;4.25;2.55;;;;;;;;;;5042879;28;20413;-81
2024/01/22 11:57:22;;;;;;;2.58;2.05;;;;;;;;;;5043506;28;20382;-81
2024/01/22 12:00:04;;;;;;;3.92;2.50;;;;;;;;;;5042650;28;20883;-81
2024/01/22 12:02:30;;;;;;;7.43;4.30;;;;;;;;;;5043048;28;20424;-83
2024/01/22 12:05:10;;;;;;;4.25;2.72;;;;;;;;;;5043293;28;20422;-81
2024/01/22 12:07:40;;;;;;;5.15;2.67;;;;;;;;;;5039802;28;20379;-80
2024/01/22 12:10:19;;;;;;;3.83;2.80;;;;;;;;;;5040761;28;20407;-81
2024/01/22 12:12:49;;;;;;;4.30;2.70;;;;;;;;;;5041066;28;20450;-79
2024/01/22 12:15:15;;;;;;;3.77;2.33;;;;;;;;;;5041128;28;20919;-80
2024/01/22 12:17:44;;;;;;;4.28;2.72;;;;;;;;;;5042492;28;20391;-81
2024/01/22 12:20:11;;;;;;;3.53;3.03;;;;;;;;;;5068087;28;20790;-81
2024/01/22 12:22:37;;;;;;;4.85;2.90;;;;;;;;;;5082336;28;20442;-81
2024/01/22 12:25:03;;;;;;;2.60;2.40;;;;;;;;;;5079241;28;20405;-80
2024/01/22 12:27:29;;;;;;;3.30;2.25;;;;;;;;;;5078039;28;20386;-80
2024/01/22 12:29:59;;;;;;;4.22;2.95;;;;;;;;;;5077108;28;20455;-80
2024/01/22 12:32:25;;;;;;;4.73;3.00;;;;;;;;;;5078954;28;20470;-80
2024/01/22 12:34:57;;;;;;;4.25;3.55;;;;;;;;;;5082625;28;20429;-80
2024/01/22 12:37:25;;;;;;;5.32;3.20;;;;;;;;;;5081283;28;20384;-80
2024/01/22 12:40:04;;;;;;;3.53;2.70;;;;;;;;;;5082233;28;20378;-79
2024/01/22 12:42:30;;;;;;;3.63;2.33;;;;;;;;;;5082204;28;20411;-80
2024/01/22 12:44:59;;;;;;;3.38;2.55;;;;;;;;;;5074985;28;20374;-80
2024/01/22 12:47:29;;;;;;;3.97;2.40;;;;;;;;;;5061264;28;20373;-80
2024/01/22 12:49:55;;;;;;;3.25;2.75;;;;;;;;;;5061368;28;20879;-80
2024/01/22 12:52:24;;;;;;;4.22;3.40;;;;;;;;;;5062143;28;20378;-80
2024/01/22 12:54:50;;;;;;;4.07;3.30;;;;;;;;;;5062105;28;20415;-80
2024/01/22 12:57:16;;;;;;;5.20;2.97;;;;;;;;;;5057454;28;20392;-80
2024/01/22 12:59:47;;;;;;;3.28;2.72;;;;;;;;;;5058804;28;20393;-80
2024/01/22 13:02:13;;;;;;;3.72;3.05;;;;;;;;;;5056631;28;20398;-80
2024/01/22 13:04:39;;;;;;;4.22;2.70;;;;;;;;;;5057932;28;20393;-80
2024/01/22 13:07:05;;;;;;;3.75;2.70;;;;;;;;;;5059087;28;20446;-80
2024/01/22 13:09:31;;;;;;;4.53;3.45;;;;;;;;;;5057671;28;20735;-80
2024/01/22 13:11:57;;;;;;;5.47;4.60;;;;;;;;;;5059464;28;20431;-80
2024/01/22 13:14:23;;;;;;;5.70;3.97;;;;;;;;;;5058613;28;20389;-80
2024/01/22 13:16:49;;;;;;;4.53;3.33;;;;;;;;;;5058923;28;20389;-80
2024/01/22 13:19:15;;;;;;;3.97;3.05;;;;;;;;;;5057549;28;20455;-80
2024/01/22 13:21:41;;;;;;;3.78;3.40;;;;;;;;;;5059593;28;20381;-80
2024/01/22 13:24:10;;;;;;;3.58;3.28;;;;;;;;;;5058184;28;20401;-80
2024/01/22 13:26:37;;;;;;;3.45;3.15;;;;;;;;;;5059182;28;20736;-80
2024/01/22 13:29:03;;;;;;;3.75;3.20;;;;;;;;;;5057512;28;20386;-81
2024/01/22 13:31:29;;;;;;;3.50;3.17;;;;;;;;;;5056291;28;20397;-80
2024/01/22 13:33:55;;;;;;;3.90;3.50;;;;;;;;;;5058611;28;20378;-80
2024/01/22 13:36:21;;;;;;;4.10;3.63;;;;;;;;;;5058641;28;20381;-81
2024/01/22 13:38:47;;;;;;;4.82;4.32;;;;;;;;;;5058159;28;20794;-80
2024/01/22 13:41:14;;;;;;;4.60;3.88;;;;;;;;;;5057081;28;20393;-80
2024/01/22 13:43:42;;;;;;;4.13;3.35;;;;;;;;;;5058672;28;20401;-80
2024/01/22 13:46:10;;;;;;;4.90;3.60;;;;;;;;;;5057741;28;20393;-80
2024/01/22 13:48:36;;;;;;;4.20;3.78;;;;;;;;;;5057958;28;20405;-80
2024/01/22 13:51:02;;;;;;;3.88;3.33;;;;;;;;;;5058948;28;20380;-81
2024/01/22 13:53:29;;;;;;;4.30;3.72;;;;;;;;;;5052111;28;20380;-80
2024/01/22 13:55:55;;;;;;;5.32;4.65;;;;;;;;;;5037638;28;20391;-81
2024/01/22 13:58:21;;;;;;;4.22;3.40;;;;;;;;;;5038553;28;20391;-81
2024/01/22 14:00:47;;;;;;;5.13;3.65;;;;;;;;;;5037589;28;20418;-80
2024/01/22 14:03:13;;;;;;;3.75;3.40;;;;;;;;;;5037666;28;20419;-81
2024/01/22 14:05:39;;;;;;;6.05;3.78;;;;;;;;;;5037816;28;20440;-80
2024/01/22 14:08:05;;;;;;;5.37;3.60;;;;;;;;;;5036465;28;20384;-80
2024/01/22 14:10:31;;;;;;;4.35;3.40;;;;;;;;;;5044626;28;20392;-80
2024/01/22 14:12:57;;;;;;;4.00;3.53;;;;;;;;;;5078609;28;20419;-80
2024/01/22 14:15:23;;;;;;;5.88;5.25;;;;;;;;;;5077694;28;20391;-80
2024/01/22 14:17:49;;;;;;;9.27;8.13;;;;;;;;;;5078463;28;20854;-80
2024/01/22 14:20:15;;;;;;;8.35;7.45;;;;;;;;;;5079158;28;20410;-80
2024/01/22 14:22:41;;;;;;;7.20;5.63;;;;;;;;;;5078515;28;20399;-80
2024/01/22 14:25:07;;;;;;;4.95;3.88;;;;;;;;;;5077434;28;20379;-80